Terminal Aerodrome Forecast
Issued by NWS Pocatello, ID

Home | Current Version | Previous Version | Text Only | Print | Product List | Glossary On
Versions: 1 2 3 4 5 6 7 8 9 10 11 12 13 14
000
FTUS45 KPIH 281100
TAFBYI
TAF
KBYI 281120Z 2812/2912 22012G22KT P6SM BKN200
     FM281900 26012G22KT P6SM SCT140 BKN200
     FM290600 22011KT P6SM BKN070 OVC120=

USA.gov is the U.S. government's official web portal to all federal, state and local government web resources and services.